sensor_id;sensor_type;location;lat;lon;timestamp;temperature;humidity
32394;DHT22;18853;45.426;9.206;2023-05-29T00:00:57;27.60;42.90
32394;DHT22;18853;45.426;9.206;2023-05-29T00:03:22;27.60;43.00
32394;DHT22;18853;45.426;9.206;2023-05-29T00:05:48;27.60;42.60
32394;DHT22;18853;45.426;9.206;2023-05-29T00:08:14;27.50;41.70
32394;DHT22;18853;45.426;9.206;2023-05-29T00:10:41;27.50;41.50
32394;DHT22;18853;45.426;9.206;2023-05-29T00:13:06;27.50;41.10
32394;DHT22;18853;45.426;9.206;2023-05-29T00:15:32;27.50;40.90
32394;DHT22;18853;45.426;9.206;2023-05-29T00:17:58;27.50;40.60
32394;DHT22;18853;45.426;9.206;2023-05-29T00:20:23;27.50;40.10
32394;DHT22;18853;45.426;9.206;2023-05-29T00:22:49;27.50;40.20
32394;DHT22;18853;45.426;9.206;2023-05-29T00:25:15;27.40;40.10
32394;DHT22;18853;45.426;9.206;2023-05-29T00:27:42;27.40;40.50
32394;DHT22;18853;45.426;9.206;2023-05-29T00:30:08;27.40;39.60
32394;DHT22;18853;45.426;9.206;2023-05-29T00:32:34;27.40;40.00
32394;DHT22;18853;45.426;9.206;2023-05-29T00:35:00;27.40;39.60
32394;DHT22;18853;45.426;9.206;2023-05-29T00:37:25;27.40;39.20
32394;DHT22;18853;45.426;9.206;2023-05-29T00:39:51;27.40;39.80
32394;DHT22;18853;45.426;9.206;2023-05-29T00:42:17;27.50;39.50
32394;DHT22;18853;45.426;9.206;2023-05-29T00:44:42;27.50;39.40
32394;DHT22;18853;45.426;9.206;2023-05-29T00:47:08;27.50;39.40
32394;DHT22;18853;45.426;9.206;2023-05-29T00:49:36;27.50;39.20
32394;DHT22;18853;45.426;9.206;2023-05-29T00:52:03;27.40;39.20
32394;DHT22;18853;45.426;9.206;2023-05-29T00:54:29;27.40;39.50
32394;DHT22;18853;45.426;9.206;2023-05-29T00:56:57;27.30;39.70
32394;DHT22;18853;45.426;9.206;2023-05-29T00:59:29;27.40;39.80
32394;DHT22;18853;45.426;9.206;2023-05-29T01:01:55;27.40;39.80
32394;DHT22;18853;45.426;9.206;2023-05-29T01:04:23;27.30;39.70
32394;DHT22;18853;45.426;9.206;2023-05-29T01:06:49;27.40;39.60
32394;DHT22;18853;45.426;9.206;2023-05-29T01:09:15;27.30;39.90
32394;DHT22;18853;45.426;9.206;2023-05-29T01:14:37;27.30;40.00
32394;DHT22;18853;45.426;9.206;2023-05-29T01:17:13;27.40;41.00
32394;DHT22;18853;45.426;9.206;2023-05-29T01:20:11;27.40;40.10
32394;DHT22;18853;45.426;9.206;2023-05-29T01:28:27;27.10;40.40
32394;DHT22;18853;45.426;9.206;2023-05-29T01:30:57;27.10;40.70
32394;DHT22;18853;45.426;9.206;2023-05-29T01:33:24;27.10;41.10
32394;DHT22;18853;45.426;9.206;2023-05-29T01:35:51;27.10;41.20
32394;DHT22;18853;45.426;9.206;2023-05-29T01:38:17;27.00;41.30
32394;DHT22;18853;45.426;9.206;2023-05-29T01:40:42;27.00;41.60
32394;DHT22;18853;45.426;9.206;2023-05-29T01:46:15;26.90;42.10
32394;DHT22;18853;45.426;9.206;2023-05-29T01:48:42;26.90;42.60
32394;DHT22;18853;45.426;9.206;2023-05-29T01:51:09;26.80;42.40
32394;DHT22;18853;45.426;9.206;2023-05-29T01:53:36;26.90;42.50
32394;DHT22;18853;45.426;9.206;2023-05-29T01:56:04;26.80;42.70
32394;DHT22;18853;45.426;9.206;2023-05-29T01:58:30;26.80;43.00
32394;DHT22;18853;45.426;9.206;2023-05-29T02:00:57;26.80;43.10
32394;DHT22;18853;45.426;9.206;2023-05-29T02:03:23;26.80;43.00
32394;DHT22;18853;45.426;9.206;2023-05-29T02:05:50;26.80;43.20
32394;DHT22;18853;45.426;9.206;2023-05-29T02:08:15;26.80;43.20
32394;DHT22;18853;45.426;9.206;2023-05-29T02:10:41;26.70;43.10
32394;DHT22;18853;45.426;9.206;2023-05-29T02:13:07;26.70;43.30
32394;DHT22;18853;45.426;9.206;2023-05-29T02:15:33;26.70;43.60
32394;DHT22;18853;45.426;9.206;2023-05-29T02:17:58;26.70;43.80
32394;DHT22;18853;45.426;9.206;2023-05-29T02:20:26;26.70;43.90
32394;DHT22;18853;45.426;9.206;2023-05-29T02:22:52;26.60;43.90
32394;DHT22;18853;45.426;9.206;2023-05-29T02:25:18;26.70;43.90
32394;DHT22;18853;45.426;9.206;2023-05-29T02:27:44;26.60;44.20
32394;DHT22;18853;45.426;9.206;2023-05-29T02:30:10;26.60;44.20
32394;DHT22;18853;45.426;9.206;2023-05-29T02:32:36;26.60;44.20
32394;DHT22;18853;45.426;9.206;2023-05-29T02:35:02;26.60;44.20
32394;DHT22;18853;45.426;9.206;2023-05-29T02:37:28;26.70;44.50
32394;DHT22;18853;45.426;9.206;2023-05-29T02:39:54;26.70;45.00
32394;DHT22;18853;45.426;9.206;2023-05-29T02:42:20;26.80;44.90
32394;DHT22;18853;45.426;9.206;2023-05-29T02:44:46;26.80;44.80
32394;DHT22;18853;45.426;9.206;2023-05-29T02:47:11;26.90;44.40
32394;DHT22;18853;45.426;9.206;2023-05-29T02:49:37;26.90;44.40
32394;DHT22;18853;45.426;9.206;2023-05-29T02:52:03;26.80;44.30
32394;DHT22;18853;45.426;9.206;2023-05-29T02:54:28;26.80;44.50
32394;DHT22;18853;45.426;9.206;2023-05-29T02:56:54;26.80;44.30
32394;DHT22;18853;45.426;9.206;2023-05-29T02:59:20;26.70;44.60
32394;DHT22;18853;45.426;9.206;2023-05-29T03:01:46;26.60;45.00
32394;DHT22;18853;45.426;9.206;2023-05-29T03:04:13;26.60;45.00
32394;DHT22;18853;45.426;9.206;2023-05-29T03:06:39;26.60;45.10
32394;DHT22;18853;45.426;9.206;2023-05-29T03:09:05;26.60;44.90
32394;DHT22;18853;45.426;9.206;2023-05-29T03:11:34;26.50;44.90
32394;DHT22;18853;45.426;9.206;2023-05-29T03:14:01;26.50;45.30
32394;DHT22;18853;45.426;9.206;2023-05-29T03:16:27;26.40;45.40
32394;DHT22;18853;45.426;9.206;2023-05-29T03:18:55;26.40;45.40
32394;DHT22;18853;45.426;9.206;2023-05-29T03:21:20;26.40;45.70
32394;DHT22;18853;45.426;9.206;2023-05-29T03:23:47;26.50;45.50
32394;DHT22;18853;45.426;9.206;2023-05-29T03:26:13;26.50;45.60
32394;DHT22;18853;45.426;9.206;2023-05-29T03:28:39;26.50;45.40
32394;DHT22;18853;45.426;9.206;2023-05-29T03:31:05;26.40;45.40
32394;DHT22;18853;45.426;9.206;2023-05-29T03:33:30;26.40;45.60
32394;DHT22;18853;45.426;9.206;2023-05-29T03:35:56;26.40;45.60
32394;DHT22;18853;45.426;9.206;2023-05-29T03:38:22;26.40;45.90
32394;DHT22;18853;45.426;9.206;2023-05-29T03:40:48;26.40;45.70
32394;DHT22;18853;45.426;9.206;2023-05-29T03:43:14;26.40;45.60
32394;DHT22;18853;45.426;9.206;2023-05-29T03:45:40;26.40;45.40
32394;DHT22;18853;45.426;9.206;2023-05-29T03:48:05;26.40;46.00
32394;DHT22;18853;45.426;9.206;2023-05-29T03:50:31;26.40;45.60
32394;DHT22;18853;45.426;9.206;2023-05-29T03:52:57;26.40;45.50
32394;DHT22;18853;45.426;9.206;2023-05-29T03:55:22;26.40;45.70
32394;DHT22;18853;45.426;9.206;2023-05-29T03:57:48;26.40;45.70
32394;DHT22;18853;45.426;9.206;2023-05-29T04:00:14;26.40;45.60
32394;DHT22;18853;45.426;9.206;2023-05-29T04:02:40;26.40;45.40
32394;DHT22;18853;45.426;9.206;2023-05-29T04:05:07;26.40;45.40
32394;DHT22;18853;45.426;9.206;2023-05-29T04:07:37;26.30;45.50
32394;DHT22;18853;45.426;9.206;2023-05-29T04:10:04;26.30;45.90
32394;DHT22;18853;45.426;9.206;2023-05-29T04:12:31;26.30;45.50
32394;DHT22;18853;45.426;9.206;2023-05-29T04:14:57;26.40;46.10
32394;DHT22;18853;45.426;9.206;2023-05-29T04:17:23;26.30;47.20
32394;DHT22;18853;45.426;9.206;2023-05-29T04:19:48;26.30;47.80
32394;DHT22;18853;45.426;9.206;2023-05-29T04:22:14;26.40;49.30
32394;DHT22;18853;45.426;9.206;2023-05-29T04:24:40;26.30;50.10
32394;DHT22;18853;45.426;9.206;2023-05-29T04:27:08;26.20;50.70
32394;DHT22;18853;45.426;9.206;2023-05-29T04:29:34;26.10;51.80
32394;DHT22;18853;45.426;9.206;2023-05-29T04:32:00;26.00;51.50
32394;DHT22;18853;45.426;9.206;2023-05-29T04:34:29;25.90;51.30
32394;DHT22;18853;45.426;9.206;2023-05-29T04:36:57;25.80;52.20
32394;DHT22;18853;45.426;9.206;2023-05-29T04:39:24;25.70;52.40
32394;DHT22;18853;45.426;9.206;2023-05-29T04:41:50;25.70;52.50
32394;DHT22;18853;45.426;9.206;2023-05-29T04:44:17;25.60;52.50
32394;DHT22;18853;45.426;9.206;2023-05-29T04:46:43;25.50;52.60
32394;DHT22;18853;45.426;9.206;2023-05-29T04:49:10;25.50;52.70
32394;DHT22;18853;45.426;9.206;2023-05-29T04:51:38;25.40;53.80
32394;DHT22;18853;45.426;9.206;2023-05-29T04:54:10;25.30;54.10
32394;DHT22;18853;45.426;9.206;2023-05-29T04:56:36;25.20;53.30
32394;DHT22;18853;45.426;9.206;2023-05-29T04:59:03;25.10;54.60
32394;DHT22;18853;45.426;9.206;2023-05-29T05:01:29;25.10;53.90
32394;DHT22;18853;45.426;9.206;2023-05-29T05:03:54;25.00;54.10
32394;DHT22;18853;45.426;9.206;2023-05-29T05:06:24;24.90;54.00
32394;DHT22;18853;45.426;9.206;2023-05-29T05:08:51;24.90;54.10
32394;DHT22;18853;45.426;9.206;2023-05-29T05:11:18;24.90;54.00
32394;DHT22;18853;45.426;9.206;2023-05-29T05:13:44;24.90;53.60
32394;DHT22;18853;45.426;9.206;2023-05-29T05:16:10;24.90;53.90
32394;DHT22;18853;45.426;9.206;2023-05-29T05:18:36;24.90;53.80
32394;DHT22;18853;45.426;9.206;2023-05-29T05:21:02;24.90;53.90
32394;DHT22;18853;45.426;9.206;2023-05-29T05:23:29;24.90;53.90
32394;DHT22;18853;45.426;9.206;2023-05-29T05:25:55;24.80;53.80
32394;DHT22;18853;45.426;9.206;2023-05-29T05:28:21;24.90;53.90
32394;DHT22;18853;45.426;9.206;2023-05-29T05:30:47;24.90;54.10
32394;DHT22;18853;45.426;9.206;2023-05-29T05:33:13;24.90;54.20
32394;DHT22;18853;45.426;9.206;2023-05-29T05:35:39;24.90;53.90
32394;DHT22;18853;45.426;9.206;2023-05-29T05:38:05;24.90;53.90
32394;DHT22;18853;45.426;9.206;2023-05-29T05:40:31;24.90;53.90
32394;DHT22;18853;45.426;9.206;2023-05-29T05:42:57;24.90;54.30
32394;DHT22;18853;45.426;9.206;2023-05-29T05:45:23;24.90;54.60
32394;DHT22;18853;45.426;9.206;2023-05-29T05:47:49;24.90;55.20
32394;DHT22;18853;45.426;9.206;2023-05-29T05:50:15;24.90;55.50
32394;DHT22;18853;45.426;9.206;2023-05-29T05:52:40;24.90;55.40
32394;DHT22;18853;45.426;9.206;2023-05-29T05:55:06;24.90;55.00
32394;DHT22;18853;45.426;9.206;2023-05-29T05:57:33;24.80;55.30
32394;DHT22;18853;45.426;9.206;2023-05-29T06:00:03;24.70;55.30
32394;DHT22;18853;45.426;9.206;2023-05-29T06:02:41;24.80;55.10
32394;DHT22;18853;45.426;9.206;2023-05-29T06:05:08;24.70;54.90
32394;DHT22;18853;45.426;9.206;2023-05-29T06:07:35;24.80;54.90
32394;DHT22;18853;45.426;9.206;2023-05-29T06:10:01;25.00;55.00
32394;DHT22;18853;45.426;9.206;2023-05-29T06:12:27;25.20;54.50
32394;DHT22;18853;45.426;9.206;2023-05-29T06:14:53;25.40;54.10
32394;DHT22;18853;45.426;9.206;2023-05-29T06:17:18;25.60;53.80
32394;DHT22;18853;45.426;9.206;2023-05-29T06:19:44;25.70;53.90
32394;DHT22;18853;45.426;9.206;2023-05-29T06:22:10;25.80;53.60
32394;DHT22;18853;45.426;9.206;2023-05-29T06:24:35;25.80;53.40
32394;DHT22;18853;45.426;9.206;2023-05-29T06:27:01;25.90;53.30
32394;DHT22;18853;45.426;9.206;2023-05-29T06:29:27;26.00;53.20
32394;DHT22;18853;45.426;9.206;2023-05-29T06:31:52;26.00;52.80
32394;DHT22;18853;45.426;9.206;2023-05-29T06:34:18;26.10;52.60
32394;DHT22;18853;45.426;9.206;2023-05-29T06:36:44;26.20;52.10
32394;DHT22;18853;45.426;9.206;2023-05-29T06:39:11;26.10;52.20
32394;DHT22;18853;45.426;9.206;2023-05-29T06:41:37;26.30;52.20
32394;DHT22;18853;45.426;9.206;2023-05-29T06:44:02;26.30;51.90
32394;DHT22;18853;45.426;9.206;2023-05-29T06:46:28;26.30;51.90
32394;DHT22;18853;45.426;9.206;2023-05-29T06:48:54;26.40;51.60
32394;DHT22;18853;45.426;9.206;2023-05-29T06:51:20;26.40;51.40
32394;DHT22;18853;45.426;9.206;2023-05-29T06:53:45;26.50;51.20
32394;DHT22;18853;45.426;9.206;2023-05-29T06:56:11;26.50;51.20
32394;DHT22;18853;45.426;9.206;2023-05-29T06:58:37;26.50;51.20
32394;DHT22;18853;45.426;9.206;2023-05-29T07:01:02;26.50;51.30
32394;DHT22;18853;45.426;9.206;2023-05-29T07:03:28;26.60;51.10
32394;DHT22;18853;45.426;9.206;2023-05-29T07:05:54;26.60;51.10
32394;DHT22;18853;45.426;9.206;2023-05-29T07:08:20;26.60;51.00
32394;DHT22;18853;45.426;9.206;2023-05-29T07:10:46;26.70;51.00
32394;DHT22;18853;45.426;9.206;2023-05-29T07:13:17;26.70;51.10
32394;DHT22;18853;45.426;9.206;2023-05-29T07:15:44;26.70;51.10
32394;DHT22;18853;45.426;9.206;2023-05-29T07:18:09;26.70;51.10
32394;DHT22;18853;45.426;9.206;2023-05-29T07:20:36;26.70;51.30
32394;DHT22;18853;45.426;9.206;2023-05-29T07:23:02;26.70;51.40
32394;DHT22;18853;45.426;9.206;2023-05-29T07:25:29;26.80;51.60
32394;DHT22;18853;45.426;9.206;2023-05-29T07:27:55;26.90;51.30
32394;DHT22;18853;45.426;9.206;2023-05-29T07:30:21;26.80;51.40
32394;DHT22;18853;45.426;9.206;2023-05-29T07:32:46;26.80;51.50
32394;DHT22;18853;45.426;9.206;2023-05-29T07:35:12;26.90;51.50
32394;DHT22;18853;45.426;9.206;2023-05-29T07:37:38;26.90;51.70
32394;DHT22;18853;45.426;9.206;2023-05-29T07:40:04;26.90;51.70
32394;DHT22;18853;45.426;9.206;2023-05-29T07:42:33;26.90;51.70
32394;DHT22;18853;45.426;9.206;2023-05-29T07:44:59;26.90;51.70
32394;DHT22;18853;45.426;9.206;2023-05-29T07:47:25;27.00;51.60
32394;DHT22;18853;45.426;9.206;2023-05-29T07:49:50;26.90;51.40
32394;DHT22;18853;45.426;9.206;2023-05-29T07:52:17;27.00;51.60
32394;DHT22;18853;45.426;9.206;2023-05-29T07:54:43;27.00;51.50
32394;DHT22;18853;45.426;9.206;2023-05-29T07:57:09;27.00;51.10
32394;DHT22;18853;45.426;9.206;2023-05-29T07:59:41;27.00;51.00
32394;DHT22;18853;45.426;9.206;2023-05-29T08:02:08;27.10;50.90
32394;DHT22;18853;45.426;9.206;2023-05-29T08:04:34;27.10;50.70
32394;DHT22;18853;45.426;9.206;2023-05-29T08:07:00;27.10;50.70
32394;DHT22;18853;45.426;9.206;2023-05-29T08:09:26;27.10;50.80
32394;DHT22;18853;45.426;9.206;2023-05-29T08:11:52;27.10;50.60
32394;DHT22;18853;45.426;9.206;2023-05-29T08:14:18;27.10;50.50
32394;DHT22;18853;45.426;9.206;2023-05-29T08:16:44;27.20;50.50
32394;DHT22;18853;45.426;9.206;2023-05-29T08:19:09;27.10;50.40
32394;DHT22;18853;45.426;9.206;2023-05-29T08:21:35;27.10;50.20
32394;DHT22;18853;45.426;9.206;2023-05-29T08:24:03;27.20;50.00
32394;DHT22;18853;45.426;9.206;2023-05-29T08:26:32;27.20;49.90
32394;DHT22;18853;45.426;9.206;2023-05-29T08:28:58;27.20;49.80
32394;DHT22;18853;45.426;9.206;2023-05-29T08:31:23;27.20;49.70
32394;DHT22;18853;45.426;9.206;2023-05-29T08:33:51;27.20;49.60
32394;DHT22;18853;45.426;9.206;2023-05-29T08:36:17;27.10;49.00
32394;DHT22;18853;45.426;9.206;2023-05-29T08:38:43;27.10;49.50
32394;DHT22;18853;45.426;9.206;2023-05-29T08:41:12;27.20;49.70
32394;DHT22;18853;45.426;9.206;2023-05-29T08:43:41;27.20;49.30
32394;DHT22;18853;45.426;9.206;2023-05-29T08:46:07;27.20;49.90
32394;DHT22;18853;45.426;9.206;2023-05-29T08:48:36;27.20;49.50
32394;DHT22;18853;45.426;9.206;2023-05-29T08:51:05;27.30;49.30
32394;DHT22;18853;45.426;9.206;2023-05-29T08:53:32;27.20;49.20
32394;DHT22;18853;45.426;9.206;2023-05-29T08:55:58;27.30;49.10
32394;DHT22;18853;45.426;9.206;2023-05-29T08:58:24;27.20;48.80
32394;DHT22;18853;45.426;9.206;2023-05-29T09:00:51;27.30;48.80
32394;DHT22;18853;45.426;9.206;2023-05-29T09:03:17;27.30;48.80
32394;DHT22;18853;45.426;9.206;2023-05-29T09:05:43;27.30;48.90
32394;DHT22;18853;45.426;9.206;2023-05-29T09:08:10;27.30;49.00
32394;DHT22;18853;45.426;9.206;2023-05-29T09:10:41;27.40;49.00
32394;DHT22;18853;45.426;9.206;2023-05-29T09:13:09;27.40;48.60
32394;DHT22;18853;45.426;9.206;2023-05-29T09:15:36;27.30;48.20
32394;DHT22;18853;45.426;9.206;2023-05-29T09:18:04;27.20;48.00
32394;DHT22;18853;45.426;9.206;2023-05-29T09:20:30;27.20;47.30
32394;DHT22;18853;45.426;9.206;2023-05-29T09:23:04;27.20;47.10
32394;DHT22;18853;45.426;9.206;2023-05-29T09:25:32;27.20;47.20
32394;DHT22;18853;45.426;9.206;2023-05-29T09:28:02;27.10;47.20
32394;DHT22;18853;45.426;9.206;2023-05-29T09:33:07;27.20;47.60
32394;DHT22;18853;45.426;9.206;2023-05-29T09:35:53;27.20;47.80
32394;DHT22;18853;45.426;9.206;2023-05-29T09:38:19;27.20;46.80
32394;DHT22;18853;45.426;9.206;2023-05-29T09:40:45;27.10;47.70
32394;DHT22;18853;45.426;9.206;2023-05-29T09:43:17;27.20;47.90
32394;DHT22;18853;45.426;9.206;2023-05-29T09:45:44;27.30;47.60
32394;DHT22;18853;45.426;9.206;2023-05-29T09:48:17;27.30;47.00
32394;DHT22;18853;45.426;9.206;2023-05-29T09:50:44;27.30;47.10
32394;DHT22;18853;45.426;9.206;2023-05-29T09:53:20;27.20;47.10
32394;DHT22;18853;45.426;9.206;2023-05-29T09:55:48;27.20;46.40
32394;DHT22;18853;45.426;9.206;2023-05-29T09:58:15;27.10;47.00
32394;DHT22;18853;45.426;9.206;2023-05-29T10:00:42;27.20;47.40
32394;DHT22;18853;45.426;9.206;2023-05-29T10:03:09;27.10;47.30
32394;DHT22;18853;45.426;9.206;2023-05-29T10:05:37;27.20;47.50
32394;DHT22;18853;45.426;9.206;2023-05-29T10:08:06;27.30;47.40
32394;DHT22;18853;45.426;9.206;2023-05-29T10:10:34;27.40;47.40
32394;DHT22;18853;45.426;9.206;2023-05-29T10:13:01;27.50;47.40
32394;DHT22;18853;45.426;9.206;2023-05-29T10:15:31;27.60;47.60
32394;DHT22;18853;45.426;9.206;2023-05-29T10:18:06;27.60;47.40
32394;DHT22;18853;45.426;9.206;2023-05-29T10:20:35;27.70;46.80
32394;DHT22;18853;45.426;9.206;2023-05-29T10:23:03;27.70;46.70
32394;DHT22;18853;45.426;9.206;2023-05-29T10:25:31;27.70;47.50
32394;DHT22;18853;45.426;9.206;2023-05-29T10:27:59;27.80;46.40
32394;DHT22;18853;45.426;9.206;2023-05-29T10:35:48;27.60;46.80
32394;DHT22;18853;45.426;9.206;2023-05-29T10:38:17;27.60;46.80
32394;DHT22;18853;45.426;9.206;2023-05-29T10:40:44;27.50;46.30
32394;DHT22;18853;45.426;9.206;2023-05-29T10:46:00;27.60;45.90
32394;DHT22;18853;45.426;9.206;2023-05-29T10:50:55;27.70;46.20
32394;DHT22;18853;45.426;9.206;2023-05-29T10:53:26;27.70;45.60
32394;DHT22;18853;45.426;9.206;2023-05-29T10:55:56;27.80;45.20
32394;DHT22;18853;45.426;9.206;2023-05-29T10:58:23;27.80;45.60
32394;DHT22;18853;45.426;9.206;2023-05-29T11:00:50;27.80;45.20
32394;DHT22;18853;45.426;9.206;2023-05-29T11:03:24;27.90;45.70
32394;DHT22;18853;45.426;9.206;2023-05-29T11:08:55;27.90;46.00
32394;DHT22;18853;45.426;9.206;2023-05-29T11:13:54;27.80;45.80
32394;DHT22;18853;45.426;9.206;2023-05-29T11:18:47;27.80;45.00
32394;DHT22;18853;45.426;9.206;2023-05-29T11:24:24;28.00;45.40
32394;DHT22;18853;45.426;9.206;2023-05-29T11:26:51;28.00;45.50
32394;DHT22;18853;45.426;9.206;2023-05-29T11:29:22;28.00;45.10
32394;DHT22;18853;45.426;9.206;2023-05-29T11:31:54;28.10;44.50
32394;DHT22;18853;45.426;9.206;2023-05-29T11:34:22;28.10;44.20
32394;DHT22;18853;45.426;9.206;2023-05-29T11:36:50;28.10;44.40
32394;DHT22;18853;45.426;9.206;2023-05-29T11:39:16;28.20;45.80
32394;DHT22;18853;45.426;9.206;2023-05-29T11:41:42;28.30;45.80
32394;DHT22;18853;45.426;9.206;2023-05-29T11:44:08;28.40;45.20
32394;DHT22;18853;45.426;9.206;2023-05-29T11:46:34;28.40;45.30
32394;DHT22;18853;45.426;9.206;2023-05-29T11:49:00;28.50;45.40
32394;DHT22;18853;45.426;9.206;2023-05-29T11:51:26;28.50;45.00
32394;DHT22;18853;45.426;9.206;2023-05-29T11:53:52;28.60;45.20
32394;DHT22;18853;45.426;9.206;2023-05-29T11:56:24;28.70;44.20
32394;DHT22;18853;45.426;9.206;2023-05-29T11:58:51;28.70;43.50
32394;DHT22;18853;45.426;9.206;2023-05-29T12:01:20;28.80;44.10
32394;DHT22;18853;45.426;9.206;2023-05-29T12:03:46;28.80;43.00
32394;DHT22;18853;45.426;9.206;2023-05-29T12:06:12;28.80;43.70
32394;DHT22;18853;45.426;9.206;2023-05-29T12:08:38;28.90;43.20
32394;DHT22;18853;45.426;9.206;2023-05-29T12:11:05;28.90;42.60
32394;DHT22;18853;45.426;9.206;2023-05-29T12:13:31;29.00;43.10
32394;DHT22;18853;45.426;9.206;2023-05-29T12:15:59;29.10;42.80
32394;DHT22;18853;45.426;9.206;2023-05-29T12:18:26;29.20;42.00
32394;DHT22;18853;45.426;9.206;2023-05-29T12:21:02;29.20;41.20
32394;DHT22;18853;45.426;9.206;2023-05-29T12:23:29;29.30;40.90
32394;DHT22;18853;45.426;9.206;2023-05-29T12:25:56;29.30;41.50
32394;DHT22;18853;45.426;9.206;2023-05-29T12:28:21;29.30;40.60
32394;DHT22;18853;45.426;9.206;2023-05-29T12:30:48;29.40;40.70
32394;DHT22;18853;45.426;9.206;2023-05-29T12:33:33;29.40;40.40
32394;DHT22;18853;45.426;9.206;2023-05-29T12:36:06;29.50;40.30
32394;DHT22;18853;45.426;9.206;2023-05-29T12:38:33;29.60;40.10
32394;DHT22;18853;45.426;9.206;2023-05-29T12:40:59;29.60;40.70
32394;DHT22;18853;45.426;9.206;2023-05-29T12:43:24;29.70;40.70
32394;DHT22;18853;45.426;9.206;2023-05-29T12:45:55;29.80;39.40
32394;DHT22;18853;45.426;9.206;2023-05-29T12:48:26;29.90;39.00
32394;DHT22;18853;45.426;9.206;2023-05-29T12:50:52;29.90;39.40
32394;DHT22;18853;45.426;9.206;2023-05-29T12:53:18;30.00;39.70
32394;DHT22;18853;45.426;9.206;2023-05-29T12:55:44;30.00;39.60
32394;DHT22;18853;45.426;9.206;2023-05-29T12:58:13;30.10;39.10
32394;DHT22;18853;45.426;9.206;2023-05-29T13:00:40;30.00;38.80
32394;DHT22;18853;45.426;9.206;2023-05-29T13:03:07;30.10;39.30
32394;DHT22;18853;45.426;9.206;2023-05-29T13:05:33;30.20;39.90
32394;DHT22;18853;45.426;9.206;2023-05-29T13:07:59;30.30;40.30
32394;DHT22;18853;45.426;9.206;2023-05-29T13:10:26;30.40;40.50
32394;DHT22;18853;45.426;9.206;2023-05-29T13:12:55;30.50;40.30
32394;DHT22;18853;45.426;9.206;2023-05-29T13:15:24;30.50;39.30
32394;DHT22;18853;45.426;9.206;2023-05-29T13:17:50;30.50;39.10
32394;DHT22;18853;45.426;9.206;2023-05-29T13:20:16;30.50;39.40
32394;DHT22;18853;45.426;9.206;2023-05-29T13:22:43;30.50;39.40
32394;DHT22;18853;45.426;9.206;2023-05-29T13:25:11;30.60;39.90
32394;DHT22;18853;45.426;9.206;2023-05-29T13:27:38;30.60;40.10
32394;DHT22;18853;45.426;9.206;2023-05-29T13:30:06;30.50;40.30
32394;DHT22;18853;45.426;9.206;2023-05-29T13:32:32;30.50;41.60
32394;DHT22;18853;45.426;9.206;2023-05-29T13:34:58;30.40;40.00
32394;DHT22;18853;45.426;9.206;2023-05-29T13:37:24;30.30;39.50
32394;DHT22;18853;45.426;9.206;2023-05-29T13:39:50;30.30;39.70
32394;DHT22;18853;45.426;9.206;2023-05-29T13:42:17;30.30;39.80
32394;DHT22;18853;45.426;9.206;2023-05-29T13:44:42;30.40;40.20
32394;DHT22;18853;45.426;9.206;2023-05-29T13:47:08;30.50;40.40
32394;DHT22;18853;45.426;9.206;2023-05-29T13:49:37;30.40;40.40
32394;DHT22;18853;45.426;9.206;2023-05-29T13:52:03;30.60;38.60
32394;DHT22;18853;45.426;9.206;2023-05-29T13:54:29;30.50;38.90
32394;DHT22;18853;45.426;9.206;2023-05-29T13:57:02;30.60;39.50
32394;DHT22;18853;45.426;9.206;2023-05-29T13:59:29;30.60;39.40
32394;DHT22;18853;45.426;9.206;2023-05-29T14:01:55;30.60;38.70
32394;DHT22;18853;45.426;9.206;2023-05-29T14:04:20;30.70;38.20
32394;DHT22;18853;45.426;9.206;2023-05-29T14:06:46;30.70;37.10
32394;DHT22;18853;45.426;9.206;2023-05-29T14:09:12;30.70;37.40
32394;DHT22;18853;45.426;9.206;2023-05-29T14:11:38;30.60;37.90
32394;DHT22;18853;45.426;9.206;2023-05-29T14:14:04;30.70;37.50
32394;DHT22;18853;45.426;9.206;2023-05-29T14:16:31;30.80;37.70
32394;DHT22;18853;45.426;9.206;2023-05-29T14:18:57;30.80;37.70
32394;DHT22;18853;45.426;9.206;2023-05-29T14:21:23;30.70;37.50
32394;DHT22;18853;45.426;9.206;2023-05-29T14:23:49;30.60;37.10
32394;DHT22;18853;45.426;9.206;2023-05-29T14:26:14;30.50;37.00
32394;DHT22;18853;45.426;9.206;2023-05-29T14:28:40;30.50;37.60
32394;DHT22;18853;45.426;9.206;2023-05-29T14:31:06;30.50;38.40
32394;DHT22;18853;45.426;9.206;2023-05-29T14:33:32;30.50;37.60
32394;DHT22;18853;45.426;9.206;2023-05-29T14:35:58;30.60;36.40
32394;DHT22;18853;45.426;9.206;2023-05-29T14:38:24;30.70;36.00
32394;DHT22;18853;45.426;9.206;2023-05-29T14:40:51;30.80;35.90
32394;DHT22;18853;45.426;9.206;2023-05-29T14:43:17;31.00;35.90
32394;DHT22;18853;45.426;9.206;2023-05-29T14:45:43;30.90;36.20
32394;DHT22;18853;45.426;9.206;2023-05-29T14:48:09;31.00;36.30
32394;DHT22;18853;45.426;9.206;2023-05-29T14:50:36;31.10;36.20
32394;DHT22;18853;45.426;9.206;2023-05-29T14:53:02;31.10;36.60
32394;DHT22;18853;45.426;9.206;2023-05-29T14:55:28;30.90;36.40
32394;DHT22;18853;45.426;9.206;2023-05-29T14:57:54;30.80;36.70
32394;DHT22;18853;45.426;9.206;2023-05-29T15:00:20;30.80;37.10
32394;DHT22;18853;45.426;9.206;2023-05-29T15:02:45;30.90;37.40
32394;DHT22;18853;45.426;9.206;2023-05-29T15:05:11;30.70;37.20
32394;DHT22;18853;45.426;9.206;2023-05-29T15:07:37;30.70;37.10
32394;DHT22;18853;45.426;9.206;2023-05-29T15:10:03;30.70;37.30
32394;DHT22;18853;45.426;9.206;2023-05-29T15:12:29;30.90;37.60
32394;DHT22;18853;45.426;9.206;2023-05-29T15:14:55;31.10;37.70
32394;DHT22;18853;45.426;9.206;2023-05-29T15:17:21;31.10;36.50
32394;DHT22;18853;45.426;9.206;2023-05-29T15:19:46;31.20;36.00
32394;DHT22;18853;45.426;9.206;2023-05-29T15:22:12;31.30;36.60
32394;DHT22;18853;45.426;9.206;2023-05-29T15:24:38;31.40;37.10
32394;DHT22;18853;45.426;9.206;2023-05-29T15:27:04;31.50;37.20
32394;DHT22;18853;45.426;9.206;2023-05-29T15:29:35;31.40;35.40
32394;DHT22;18853;45.426;9.206;2023-05-29T15:32:01;31.50;35.20
32394;DHT22;18853;45.426;9.206;2023-05-29T15:34:27;31.40;35.40
32394;DHT22;18853;45.426;9.206;2023-05-29T15:36:53;31.50;36.30
32394;DHT22;18853;45.426;9.206;2023-05-29T15:39:19;31.60;36.30
32394;DHT22;18853;45.426;9.206;2023-05-29T15:41:45;31.80;36.60
32394;DHT22;18853;45.426;9.206;2023-05-29T15:44:10;31.90;36.60
32394;DHT22;18853;45.426;9.206;2023-05-29T15:46:36;32.00;36.60
32394;DHT22;18853;45.426;9.206;2023-05-29T15:49:02;32.10;35.10
32394;DHT22;18853;45.426;9.206;2023-05-29T15:51:28;32.20;35.60
32394;DHT22;18853;45.426;9.206;2023-05-29T15:53:54;32.20;35.50
32394;DHT22;18853;45.426;9.206;2023-05-29T15:56:20;32.30;35.70
32394;DHT22;18853;45.426;9.206;2023-05-29T15:58:52;32.40;35.70
32394;DHT22;18853;45.426;9.206;2023-05-29T16:01:17;32.60;35.90
32394;DHT22;18853;45.426;9.206;2023-05-29T16:03:43;32.70;34.50